createdAt,value
2022-11-28T00:02:44.029Z,10.62
2022-11-28T00:07:51.289Z,9.75
2022-11-28T00:12:57.491Z,9.15
2022-11-28T00:18:14.938Z,8.66
2022-11-28T00:23:34.856Z,8.27
2022-11-28T00:28:43.393Z,7.94
2022-11-28T00:33:48.491Z,7.67
2022-11-28T00:38:53.213Z,7.46
2022-11-28T00:43:58.437Z,7.29
2022-11-28T00:49:12.554Z,7.14
2022-11-28T00:54:48.223Z,7.04
2022-11-28T01:00:03.351Z,6.97
2022-11-28T01:05:08.562Z,8.40
2022-11-28T01:10:13.321Z,12.06
2022-11-28T01:15:17.689Z,12.00
2022-11-28T01:20:21.714Z,10.49
2022-11-28T01:25:30.348Z,9.64
2022-11-28T01:30:34.934Z,9.00
2022-11-28T01:36:11.551Z,8.50
2022-11-28T01:41:47.777Z,8.06
2022-11-28T01:47:52.145Z,7.73
2022-11-28T01:53:00.758Z,7.48
2022-11-28T01:58:39.163Z,7.30
2022-11-28T02:15:37.973Z,6.92
2022-11-28T02:21:17.357Z,6.82
2022-11-28T02:27:15.434Z,8.45
2022-11-28T02:32:52.870Z,12.25
2022-11-28T02:45:31.394Z,9.73
2022-11-28T03:00:06.551Z,8.28
2022-11-28T03:05:04.818Z,7.84
2022-11-28T03:10:45.172Z,7.51
2022-11-28T03:16:17.871Z,7.26
2022-11-28T03:21:41.700Z,7.10
2022-11-28T03:26:59.505Z,6.96
2022-11-28T03:32:12.592Z,6.88
2022-11-28T03:37:26.925Z,6.81
2022-11-28T03:42:48.301Z,6.74
2022-11-28T03:54:09.616Z,12.12
2022-11-28T03:59:27.900Z,11.20
2022-11-28T04:05:22.709Z,9.89
2022-11-28T04:10:36.575Z,9.09
2022-11-28T04:15:45.765Z,8.57
2022-11-28T04:21:12.936Z,8.17
2022-11-28T04:26:30.031Z,7.82
2022-11-28T04:31:36.532Z,7.57
2022-11-28T04:36:44.684Z,7.35
2022-11-28T04:42:06.500Z,7.16
2022-11-28T04:47:24.105Z,7.02
2022-11-28T04:52:40.046Z,6.90
2022-11-28T04:57:57.258Z,6.82
2022-11-28T05:03:02.901Z,6.75
2022-11-28T05:08:42.596Z,8.10
2022-11-28T05:13:49.574Z,11.96
2022-11-28T05:18:53.546Z,11.32
2022-11-28T05:24:03.383Z,9.98
2022-11-28T05:29:11.001Z,9.23
2022-11-28T05:34:35.488Z,8.65
2022-11-28T05:39:54.400Z,8.17
2022-11-28T05:44:58.788Z,7.83
2022-11-28T05:50:10.214Z,7.53
2022-11-28T05:55:19.397Z,7.29
2022-11-28T06:00:24.104Z,7.10
2022-11-28T06:05:42.791Z,6.96
2022-11-28T06:16:46.964Z,6.74
2022-11-28T06:21:51.873Z,6.68
2022-11-28T06:26:55.827Z,6.62
2022-11-28T06:31:59.666Z,6.59
2022-11-28T06:37:09.129Z,7.98
2022-11-28T06:42:16.343Z,11.69
2022-11-28T06:47:20.066Z,11.86
2022-11-28T06:52:26.930Z,10.27
2022-11-28T06:57:39.583Z,9.40
2022-11-28T07:02:44.161Z,8.79
2022-11-28T07:07:54.141Z,8.32
2022-11-28T07:13:09.439Z,7.94
2022-11-28T07:18:13.698Z,7.64
2022-11-28T07:23:23.345Z,7.41
2022-11-28T07:29:07.818Z,7.23
2022-11-28T07:34:44.627Z,7.10
2022-11-28T07:39:54.884Z,7.01
2022-11-28T07:45:05.589Z,6.96
2022-11-28T07:50:15.315Z,6.91
2022-11-28T08:00:43.951Z,6.89
2022-11-28T08:05:50.875Z,6.89
2022-11-28T08:11:00.849Z,6.88
2022-11-28T08:16:06.925Z,6.85
2022-11-28T08:21:21.661Z,6.83
2022-11-28T08:26:30.365Z,6.83
2022-11-28T08:31:37.937Z,6.84
2022-11-28T08:36:54.455Z,6.88
2022-11-28T08:42:02.343Z,6.92
2022-11-28T08:47:06.950Z,6.93
2022-11-28T08:52:10.840Z,6.94
2022-11-28T08:57:14.534Z,8.31
2022-11-28T09:02:21.976Z,12.03
2022-11-28T09:07:35.312Z,12.06
2022-11-28T09:12:39.060Z,10.63
2022-11-28T09:17:42.621Z,9.92
2022-11-28T09:22:48.870Z,9.44
2022-11-28T09:27:52.623Z,9.08
2022-11-28T09:33:00.209Z,8.82
2022-11-28T09:38:04.466Z,8.63
2022-11-28T09:43:27.111Z,8.46
2022-11-28T09:48:40.574Z,8.35
2022-11-28T09:54:08.490Z,8.27
2022-11-28T09:59:34.421Z,8.23
2022-11-28T10:04:51.727Z,8.18
2022-11-28T10:10:17.466Z,8.17
2022-11-28T10:15:20.867Z,8.17
2022-11-28T10:20:55.092Z,8.18
2022-11-28T10:26:07.233Z,8.19
2022-11-28T10:31:35.273Z,8.21
2022-11-28T10:37:05.079Z,8.26
2022-11-28T10:42:30.487Z,8.29
2022-11-28T10:47:45.607Z,8.33
2022-11-28T10:53:02.646Z,8.38
2022-11-28T10:58:19.957Z,8.47
2022-11-28T11:03:33.097Z,8.61
2022-11-28T11:08:43.307Z,8.76
2022-11-28T11:14:07.993Z,8.83
2022-11-28T11:19:26.745Z,8.88
2022-11-28T11:24:30.394Z,8.89
2022-11-28T11:29:37.634Z,8.88
2022-11-28T11:34:46.701Z,8.87
2022-11-28T11:39:53.052Z,8.87
2022-11-28T11:44:57.944Z,8.88
2022-11-28T11:50:07.176Z,8.89
2022-11-28T11:55:16.476Z,8.97
2022-11-28T12:00:27.860Z,9.03
2022-11-28T12:06:12.699Z,9.16
2022-11-28T12:11:14.962Z,9.35
2022-11-28T12:16:43.323Z,9.40
2022-11-28T12:22:27.996Z,9.39
2022-11-28T12:28:02.167Z,9.39
2022-11-28T12:33:08.142Z,9.46
2022-11-28T12:38:46.932Z,9.54
2022-11-28T12:44:13.907Z,9.58
2022-11-28T12:49:24.115Z,9.57
2022-11-28T12:54:59.950Z,9.55
2022-11-28T13:00:08.755Z,9.52
2022-11-28T13:05:20.012Z,9.49
2022-11-28T13:11:06.541Z,9.49
2022-11-28T13:16:39.021Z,9.46
2022-11-28T13:22:06.891Z,9.41
2022-11-28T13:27:32.814Z,9.36
2022-11-28T13:32:46.798Z,9.34
2022-11-28T13:43:49.154Z,9.26
2022-11-28T13:49:14.316Z,9.21
2022-11-28T13:54:19.249Z,9.14
2022-11-28T13:59:25.364Z,9.05
2022-11-28T14:04:31.484Z,8.97
2022-11-28T14:10:02.227Z,8.87
2022-11-28T14:15:24.811Z,8.77
2022-11-28T14:21:06.140Z,8.70
2022-11-28T14:26:35.000Z,8.66
2022-11-28T14:31:40.292Z,8.58
2022-11-28T14:36:44.660Z,8.52
2022-11-28T14:42:10.139Z,8.45
2022-11-28T14:47:35.936Z,8.36
2022-11-28T14:52:41.934Z,8.27
2022-11-28T14:57:55.470Z,8.17
2022-11-28T15:03:38.686Z,8.09
2022-11-28T15:08:52.761Z,8.01
2022-11-28T15:13:59.337Z,7.93
2022-11-28T15:19:28.657Z,7.85
2022-11-28T15:24:38.331Z,7.75
2022-11-28T15:29:51.173Z,7.65
2022-11-28T15:35:10.886Z,7.55
2022-11-28T15:40:21.999Z,7.45
2022-11-28T15:45:31.277Z,7.36
2022-11-28T15:50:53.563Z,7.26
2022-11-28T15:56:42.604Z,7.17
2022-11-28T16:01:52.563Z,7.08
2022-11-28T16:07:02.581Z,7.02
2022-11-28T16:12:26.311Z,6.95
2022-11-28T16:17:34.772Z,6.88
2022-11-28T16:22:40.792Z,6.87
2022-11-28T16:27:46.771Z,6.83
2022-11-28T16:33:25.406Z,6.76
2022-11-28T16:38:29.800Z,6.70
2022-11-28T16:49:34.745Z,6.59
2022-11-28T16:54:49.465Z,6.53
2022-11-28T16:59:54.885Z,6.47
2022-11-28T17:05:22.249Z,6.42
2022-11-28T17:10:29.625Z,6.37
2022-11-28T17:15:34.913Z,6.33
2022-11-28T17:20:53.444Z,6.28
2022-11-28T17:26:19.041Z,6.23
2022-11-28T17:31:33.448Z,6.20
2022-11-28T17:36:37.749Z,6.19
2022-11-28T17:41:45.052Z,6.18
2022-11-28T17:46:52.535Z,6.16
2022-11-28T17:51:59.025Z,6.12
2022-11-28T17:57:07.547Z,6.09
2022-11-28T18:02:11.647Z,6.05
2022-11-28T18:07:16.304Z,7.55
2022-11-28T18:12:34.220Z,11.34
2022-11-28T18:17:48.557Z,11.06
2022-11-28T18:22:51.683Z,9.61
2022-11-28T18:27:54.780Z,8.79
2022-11-28T18:32:57.804Z,8.21
2022-11-28T18:38:00.829Z,7.94
2022-11-28T18:43:05.309Z,7.58
2022-11-28T18:48:08.948Z,7.20
2022-11-28T18:53:11.971Z,6.88
2022-11-28T18:58:15.368Z,6.60
2022-11-28T19:03:18.361Z,6.38
2022-11-28T19:08:21.506Z,6.17
2022-11-28T19:13:24.578Z,6.00
2022-11-28T19:18:27.656Z,5.85
2022-11-28T19:23:30.948Z,5.72
2022-11-28T19:28:35.706Z,5.61
2022-11-28T19:33:39.685Z,5.52
2022-11-28T19:38:48.140Z,5.45
2022-11-28T19:44:02.960Z,7.03
2022-11-28T19:49:07.445Z,10.68
2022-11-28T19:54:24.351Z,10.65
2022-11-28T19:59:31.813Z,9.00
2022-11-28T20:04:43.709Z,8.13
2022-11-28T20:09:51.055Z,7.51
2022-11-28T20:14:58.104Z,7.00
2022-11-28T20:20:09.110Z,6.62
2022-11-28T20:25:16.490Z,6.30
2022-11-28T20:30:26.917Z,6.00
2022-11-28T20:35:37.908Z,5.77
2022-11-28T20:41:05.491Z,5.63
2022-11-28T20:52:11.642Z,5.29
2022-11-28T20:58:10.591Z,5.15
2022-11-28T21:03:52.648Z,5.06
2022-11-28T21:09:00.840Z,4.99
2022-11-28T21:14:08.293Z,4.93
2022-11-28T21:19:26.295Z,4.85
2022-11-28T21:24:36.265Z,4.78
2022-11-28T21:30:05.804Z,6.09
2022-11-28T21:35:13.866Z,10.11
2022-11-28T21:40:17.788Z,9.95
2022-11-28T21:45:31.891Z,8.34
2022-11-28T21:50:49.621Z,7.38
2022-11-28T21:55:57.398Z,6.72
2022-11-28T22:01:07.228Z,6.19
2022-11-28T22:12:05.190Z,5.38
2022-11-28T22:17:09.623Z,5.08
2022-11-28T22:28:10.295Z,4.64
2022-11-28T22:33:18.582Z,4.48
2022-11-28T22:39:06.858Z,4.36
2022-11-28T22:50:40.472Z,4.15
2022-11-28T22:55:43.476Z,4.08
2022-11-28T23:00:59.865Z,4.04
2022-11-28T23:12:10.168Z,9.58
2022-11-28T23:32:09.185Z,6.14
2022-11-28T23:40:54.895Z,5.29
2022-11-28T23:47:05.337Z,4.83
2022-11-28T23:58:44.370Z,4.17
